Connaught, Canada
Current Conditions -  °F | °C
As of 12:00 AM on Tuesday 21 Oct 2014 (Local Time) from CYTS Reporting Station
Overcast Overcast  
Wind Chill: 25°   Ceiling: 12000
Heat Index: 32°   Visibility: 15mi
Dew Point: 30°   Wind: 8mph
Humidity: 93%   Direction: 10°N
Pressure: 30.03"   Gusts: NA
Location:  48.62°N, 80.93°W
Report Text: CYTS 210400Z 01007KT 15SM FEW040 OVC120 M00/M01 A3003 RMK SC1AC7 SLP184
Loading
Personal Weather Stations






























Interactive Weather Map
Tropical Storm Tracking
New forecast layout! Learn more

10-Day Weather Forecast

Advertisements
Track Severe Weather on mobile